Time;durP1;ratioP1;P1;durP2;ratioP2;P2;SDS_P1;SDS_P2;PMS_P1;PMS_P2;Temp;Humidity;BMP_temperature;BMP_pressure;BME280_temperature;BME280_humidity;BME280_pressure;Samples;Min_cycle;Max_cycle;Signal;HPM_P1;HPM_P2
2023/01/18 00:01:06;;;;;;;19.98;12.85;;;;;;;1.92;64.26;99028.34;5050225;28;20487;-68
2023/01/18 00:03:33;;;;;;;18.42;12.23;;;;;;;1.87;63.65;99033.72;5050289;28;20028;-68
2023/01/18 00:06:00;;;;;;;17.17;12.80;;;;;;;1.86;64.02;99034.81;5052066;28;20078;-68
2023/01/18 00:08:26;;;;;;;20.35;13.38;;;;;;;1.85;63.90;99028.50;5051527;28;20434;-68
2023/01/18 00:10:52;;;;;;;22.27;12.95;;;;;;;1.83;63.73;99027.91;5051134;28;20070;-68
2023/01/18 00:13:17;;;;;;;22.40;14.23;;;;;;;1.83;64.22;99021.59;5050961;28;20029;-68
2023/01/18 00:15:42;;;;;;;21.77;13.50;;;;;;;1.84;64.32;99026.81;5051400;28;20024;-69
2023/01/18 00:18:07;;;;;;;20.55;14.15;;;;;;;1.84;63.58;99026.81;5047859;28;20146;-69
2023/01/18 00:20:33;;;;;;;19.27;13.23;;;;;;;1.84;63.84;99026.00;5044833;28;20119;-68
2023/01/18 00:23:00;;;;;;;18.20;13.32;;;;;;;1.82;64.07;99037.19;5050129;28;20096;-68
2023/01/18 00:25:27;;;;;;;20.65;14.07;;;;;;;1.80;64.10;99036.56;5051167;28;20025;-68
2023/01/18 00:27:53;;;;;;;19.10;13.43;;;;;;;1.76;63.86;99037.31;5050353;28;20029;-68
2023/01/18 00:30:21;;;;;;;21.70;12.63;;;;;;;1.75;64.50;99041.94;5049025;28;20481;-68
2023/01/18 00:32:48;;;;;;;18.90;12.15;;;;;;;1.75;64.49;99033.75;5047687;28;20035;-68
2023/01/18 00:35:14;;;;;;;20.25;13.10;;;;;;;1.75;63.82;99038.38;5049196;28;20039;-68
2023/01/18 00:37:40;;;;;;;16.83;12.43;;;;;;;1.74;63.71;99047.66;5049048;28;20455;-68
2023/01/18 00:40:06;;;;;;;17.38;11.68;;;;;;;1.71;64.43;99044.31;5051225;28;20031;-68
2023/01/18 00:45:16;;;;;;;17.05;11.60;;;;;;;1.69;64.13;99051.97;5049099;28;20044;-68
2023/01/18 00:47:41;;;;;;;16.92;11.85;;;;;;;1.67;63.67;99042.31;5050891;28;20052;-68
2023/01/18 00:50:07;;;;;;;17.27;11.77;;;;;;;1.68;64.17;99044.81;5049339;28;20441;-68
2023/01/18 00:52:33;;;;;;;18.77;11.27;;;;;;;1.68;64.48;99047.53;5036372;28;20847;-68
2023/01/18 00:55:03;;;;;;;16.65;11.68;;;;;;;1.67;64.39;99048.63;5031245;28;20105;-68
2023/01/18 00:57:28;;;;;;;16.55;11.65;;;;;;;1.66;64.47;99055.16;5030676;28;20037;-68
2023/01/18 00:59:54;;;;;;;18.17;11.30;;;;;;;1.66;64.34;99049.69;5043982;28;20457;-68
2023/01/18 01:02:19;;;;;;;14.90;11.35;;;;;;;1.67;64.42;99045.06;5049450;28;20166;-68
2023/01/18 01:07:28;;;;;;;18.02;11.30;;;;;;;1.67;63.95;99048.63;5044063;28;20040;-68
2023/01/18 01:09:56;;;;;;;18.90;11.25;;;;;;;1.66;64.55;99049.69;5042773;28;20033;-68
2023/01/18 01:26:07;;;;;;;17.75;11.05;;;;;;;1.63;63.73;99063.00;5043736;28;20036;-69
2023/01/18 01:28:40;;;;;;;16.45;11.68;;;;;;;1.61;63.90;99071.47;5048669;28;20465;-68
2023/01/18 01:31:07;;;;;;;15.48;10.52;;;;;;;1.60;63.77;99075.25;5050282;28;20794;-68
2023/01/18 01:33:34;;;;;;;16.75;11.02;;;;;;;1.58;64.60;99074.66;5048512;28;20055;-68
2023/01/18 01:36:05;;;;;;;16.98;10.82;;;;;;;1.59;64.25;99080.97;5050419;28;20072;-68
2023/01/18 01:38:30;;;;;;;29.50;10.82;;;;;;;1.56;64.39;99084.16;5047472;28;20056;-68
2023/01/18 01:41:00;;;;;;;18.67;11.15;;;;;;;1.53;64.55;99080.00;5049249;28;20033;-69
2023/01/18 01:43:48;;;;;;;17.30;10.55;;;;;;;1.59;64.92;99090.00;5034451;28;20056;-68
2023/01/18 01:46:17;;;;;;;15.95;10.93;;;;;;;1.54;64.70;99091.78;5039032;28;20033;-68
2023/01/18 01:48:42;;;;;;;18.50;11.15;;;;;;;1.51;64.14;99095.81;5048760;28;20495;-69
2023/01/18 01:51:08;;;;;;;15.05;11.10;;;;;;;1.53;64.43;99092.84;5050277;28;20068;-68
2023/01/18 01:53:33;;;;;;;19.67;10.88;;;;;;;1.54;64.37;99098.09;5048277;28;20031;-68
2023/01/18 01:55:59;;;;;;;18.80;11.30;;;;;;;1.53;64.18;99101.88;5049781;28;20109;-68
2023/01/18 01:58:28;;;;;;;15.48;10.85;;;;;;;1.54;64.25;99100.81;5040965;28;20432;-68
2023/01/18 02:00:53;;;;;;;14.25;10.50;;;;;;;1.53;64.01;99101.03;5036748;28;20040;-67
2023/01/18 02:03:23;;;;;;;18.00;11.60;;;;;;;1.51;64.23;99106.75;5049056;28;20438;-68
2023/01/18 02:05:54;;;;;;;14.77;11.23;;;;;;;1.51;64.47;99098.56;5051648;28;20033;-68
2023/01/18 02:08:22;;;;;;;15.90;10.80;;;;;;;1.50;64.79;99102.38;5051301;28;20499;-67
2023/01/18 02:10:48;;;;;;;16.45;10.95;;;;;;;1.48;64.04;99099.84;5050241;28;20132;-67
2023/01/18 02:13:14;;;;;;;21.23;10.73;;;;;;;1.51;64.46;99101.28;5050371;28;20385;-67
2023/01/18 02:15:44;;;;;;;15.55;10.77;;;;;;;1.50;63.94;99096.91;5048342;28;20033;-67
2023/01/18 02:18:09;;;;;;;18.92;11.32;;;;;;;1.47;64.09;99097.38;5046170;28;20500;-68
2023/01/18 02:20:47;;;;;;;17.42;10.80;;;;;;;1.48;64.24;99097.13;5050567;28;20021;-68
2023/01/18 02:23:47;;;;;;;16.90;10.73;;;;;;;1.52;64.35;99097.47;5042699;28;20029;-68
2023/01/18 02:26:42;;;;;;;16.35;10.75;;;;;;;1.55;65.06;99088.81;5044735;28;20025;-68
2023/01/18 02:29:16;;;;;;;17.58;10.43;;;;;;;1.51;64.56;99095.00;5050817;28;20039;-68
2023/01/18 02:31:58;;;;;;;16.20;11.00;;;;;;;1.46;64.12;99095.72;5050027;28;20025;-67
2023/01/18 02:34:38;;;;;;;13.82;10.02;;;;;;;1.49;64.62;99095.22;5048215;28;20029;-68
2023/01/18 02:37:34;;;;;;;14.80;10.25;;;;;;;1.52;64.62;99105.69;5050302;28;20033;-68
2023/01/18 02:40:22;;;;;;;18.98;11.68;;;;;;;1.50;64.53;99102.38;5048942;28;20037;-68
2023/01/18 02:48:29;;;;;;;18.48;11.98;;;;;;;1.42;64.12;99113.66;5053836;28;20117;-68
2023/01/18 02:50:54;;;;;;;22.10;11.80;;;;;;;1.39;64.59;99114.94;5051044;28;20442;-68
2023/01/18 02:53:19;;;;;;;19.70;12.07;;;;;;;1.38;64.13;99112.47;5053957;28;20472;-68
2023/01/18 02:55:54;;;;;;;16.48;11.18;;;;;;;1.37;64.34;99119.81;5048772;28;20083;-68
2023/01/18 02:58:33;;;;;;;20.10;11.10;;;;;;;1.37;64.56;99119.81;5035409;28;20032;-68
2023/01/18 03:01:04;;;;;;;17.17;10.82;;;;;;;1.34;64.81;99119.47;5033834;28;20775;-70
2023/01/18 03:03:30;;;;;;;13.85;10.27;;;;;;;1.32;64.76;99116.13;5034775;28;20033;-68
2023/01/18 03:05:59;;;;;;;18.98;11.40;;;;;;;1.29;64.01;99116.59;5040637;28;20102;-68
2023/01/18 03:08:27;;;;;;;15.60;10.88;;;;;;;1.27;64.22;99119.56;5052394;28;20106;-67
2023/01/18 03:11:07;;;;;;;16.75;11.27;;;;;;;1.28;64.24;99117.66;5052196;28;20383;-68
2023/01/18 03:13:52;;;;;;;19.13;11.18;;;;;;;1.26;64.81;99128.84;5052591;28;20112;-68
2023/01/18 03:16:22;;;;;;;14.85;11.25;;;;;;;1.23;64.68;99124.66;5053451;28;20021;-68
2023/01/18 03:19:00;;;;;;;16.02;10.95;;;;;;;1.23;64.91;99116.47;5052524;28;20053;-68
2023/01/18 03:21:50;;;;;;;16.27;11.05;;;;;;;1.29;65.02;99122.06;5051958;28;20041;-68
2023/01/18 03:24:17;;;;;;;15.55;10.77;;;;;;;1.22;64.18;99117.56;5049340;28;20025;-68
2023/01/18 03:26:47;;;;;;;16.80;11.57;;;;;;;1.17;64.49;99114.66;5051161;28;20092;-69
2023/01/18 03:34:59;;;;;;;18.90;11.85;;;;;;;1.20;64.59;99119.66;5051502;28;20179;-69
2023/01/18 03:37:30;;;;;;;15.98;10.38;;;;;;;1.16;64.22;99118.47;5048807;28;20065;-70
2023/01/18 03:40:01;;;;;;;18.50;11.37;;;;;;;1.16;64.51;99123.94;5049174;28;20033;-69
2023/01/18 03:42:38;;;;;;;19.17;12.15;;;;;;;1.17;65.03;99125.59;5037072;28;20037;-69
2023/01/18 03:45:09;;;;;;;19.02;11.25;;;;;;;1.15;64.36;99130.47;5046419;28;20067;-69
2023/01/18 03:47:35;;;;;;;19.27;11.65;;;;;;;1.14;64.90;99138.91;5049443;28;20078;-69
2023/01/18 03:50:00;;;;;;;15.45;11.20;;;;;;;1.14;64.24;99133.44;5052324;28;20041;-69
2023/01/18 03:52:39;;;;;;;19.90;11.63;;;;;;;1.12;64.76;99141.88;5048522;28;20537;-69
2023/01/18 03:55:25;;;;;;;19.58;12.07;;;;;;;1.14;64.58;99145.22;5050483;28;20053;-69
2023/01/18 03:57:58;;;;;;;19.38;13.50;;;;;;;1.07;64.87;99155.41;5045510;28;20461;-69
2023/01/18 04:00:24;;;;;;;18.33;11.85;;;;;;;1.06;64.88;99158.34;5039703;28;20022;-69
2023/01/18 04:02:50;;;;;;;19.60;12.10;;;;;;;1.08;64.45;99168.00;5050071;28;20748;-69
2023/01/18 04:05:16;;;;;;;21.73;12.73;;;;;;;1.06;64.96;99167.41;5050923;28;20090;-69
2023/01/18 04:07:42;;;;;;;21.00;12.32;;;;;;;1.04;64.57;99164.06;5049492;28;20028;-69
2023/01/18 04:10:08;;;;;;;20.23;13.82;;;;;;;1.00;64.68;99164.78;5050015;28;20482;-69
2023/01/18 04:12:33;;;;;;;21.23;12.80;;;;;;;1.01;65.13;99169.16;5049854;28;20025;-69
2023/01/18 04:14:59;;;;;;;21.25;12.68;;;;;;;0.97;65.08;99171.50;5050472;28;20035;-69
2023/01/18 04:17:25;;;;;;;20.50;13.07;;;;;;;0.96;65.16;99178.88;5047037;28;20018;-69
2023/01/18 04:19:51;;;;;;;22.02;12.35;;;;;;;0.96;65.57;99175.31;5050094;28;20504;-69
2023/01/18 04:22:16;;;;;;;22.63;12.88;;;;;;;0.93;65.64;99173.88;5049867;28;20041;-69
2023/01/18 04:24:41;;;;;;;19.90;12.55;;;;;;;0.97;65.83;99183.28;5050324;28;20038;-69
2023/01/18 04:27:07;;;;;;;18.20;12.60;;;;;;;0.96;65.74;99183.53;5050467;28;20087;-69
2023/01/18 04:29:32;;;;;;;18.75;12.32;;;;;;;0.96;65.18;99181.63;5048877;28;20480;-69
2023/01/18 04:31:58;;;;;;;20.10;12.55;;;;;;;0.98;65.21;99175.91;5048650;28;20028;-69
2023/01/18 04:34:23;;;;;;;23.67;11.95;;;;;;;0.98;65.50;99175.91;5047171;28;20023;-70
2023/01/18 04:36:49;;;;;;;18.30;12.80;;;;;;;1.00;64.95;99178.44;5042603;28;20366;-67
2023/01/18 04:39:15;;;;;;;21.65;12.80;;;;;;;1.00;64.70;99184.72;5051391;28;20192;-68
2023/01/18 04:41:40;;;;;;;17.10;11.77;;;;;;;1.01;65.15;99185.56;5050794;28;20158;-68
2023/01/18 04:44:05;;;;;;;20.50;13.07;;;;;;;1.01;65.26;99189.09;5049561;28;20147;-68
2023/01/18 04:46:31;;;;;;;18.70;12.73;;;;;;;0.97;65.36;99185.19;5050761;28;20029;-68
2023/01/18 04:48:56;;;;;;;24.40;12.93;;;;;;;0.93;65.00;99190.25;5051175;28;20032;-68
2023/01/18 04:51:22;;;;;;;20.80;12.90;;;;;;;0.97;65.60;99188.75;5049962;28;20113;-68
2023/01/18 04:53:48;;;;;;;18.63;12.80;;;;;;;0.98;65.42;99197.75;5047632;28;20195;-68
2023/01/18 04:56:14;;;;;;;15.80;12.60;;;;;;;1.00;65.53;99197.56;5050958;28;20159;-68
2023/01/18 04:58:39;;;;;;;22.00;13.77;;;;;;;0.96;65.67;99198.00;5048842;28;20400;-68
2023/01/18 05:01:07;;;;;;;20.98;12.98;;;;;;;0.93;65.36;99194.91;5050614;28;20036;-68
2023/01/18 05:03:37;;;;;;;20.45;13.02;;;;;;;0.97;65.65;99196.09;5050157;28;20036;-68
2023/01/18 05:06:07;;;;;;;18.80;12.93;;;;;;;0.97;65.91;99201.56;5049710;28;20029;-69
2023/01/18 05:08:33;;;;;;;22.00;13.60;;;;;;;0.93;65.46;99206.66;5050189;28;20025;-68
2023/01/18 05:11:06;;;;;;;19.60;13.82;;;;;;;0.93;65.10;99208.56;5044529;28;20033;-68
2023/01/18 05:13:32;;;;;;;20.02;14.23;;;;;;;0.89;65.22;99216.38;5049126;28;20041;-69
2023/01/18 05:15:59;;;;;;;18.52;14.40;;;;;;;0.90;65.48;99223.50;5049814;28;20036;-68
2023/01/18 05:18:24;;;;;;;22.17;14.43;;;;;;;0.91;65.34;99222.47;5049190;28;20051;-68
2023/01/18 05:20:49;;;;;;;22.63;14.02;;;;;;;0.90;65.55;99214.47;5049955;28;20025;-68
2023/01/18 05:23:15;;;;;;;20.80;14.27;;;;;;;0.89;65.61;99226.47;5049986;28;20082;-68
2023/01/18 05:25:40;;;;;;;20.35;14.43;;;;;;;0.88;65.33;99224.81;5048501;28;20365;-69
2023/01/18 05:28:07;;;;;;;20.02;13.57;;;;;;;0.84;66.06;99220.88;5050323;28;20025;-69
2023/01/18 05:30:33;;;;;;;20.33;14.23;;;;;;;0.86;65.83;99229.66;5049857;28;20778;-68
2023/01/18 05:33:01;;;;;;;24.27;15.00;;;;;;;0.87;66.15;99231.34;5049820;28;20043;-68
2023/01/18 05:35:26;;;;;;;23.42;14.88;;;;;;;0.86;66.15;99232.38;5048392;28;20029;-68
2023/01/18 05:37:51;;;;;;;23.33;14.45;;;;;;;0.85;66.22;99233.47;5049193;28;20056;-69
2023/01/18 05:40:17;;;;;;;21.90;14.05;;;;;;;0.85;65.53;99241.66;5048391;28;20033;-68
2023/01/18 05:42:43;;;;;;;21.70;14.93;;;;;;;0.81;66.29;99241.28;5049828;28;20052;-68
2023/01/18 05:45:09;;;;;;;20.00;15.27;;;;;;;0.81;66.21;99240.44;5050216;28;20047;-68
2023/01/18 05:47:34;;;;;;;22.50;15.57;;;;;;;0.80;66.15;99233.31;5049190;28;20563;-68
2023/01/18 05:50:00;;;;;;;23.58;15.82;;;;;;;0.79;65.60;99245.31;5050139;28;20067;-68
2023/01/18 05:52:25;;;;;;;23.48;15.95;;;;;;;0.82;66.00;99244.84;5049659;28;20021;-68
2023/01/18 05:54:50;;;;;;;21.90;15.32;;;;;;;0.82;66.04;99251.13;5043984;28;20029;-68
2023/01/18 05:57:16;;;;;;;22.45;15.82;;;;;;;0.81;66.18;99246.75;5049892;28;20469;-68
2023/01/18 05:59:41;;;;;;;22.63;16.30;;;;;;;0.81;65.54;99254.94;5031587;28;20028;-68
2023/01/18 06:02:06;;;;;;;26.73;16.60;;;;;;;0.82;65.75;99263.97;5029901;28;20436;-68
2023/01/18 06:04:31;;;;;;;23.45;15.88;;;;;;;0.80;66.20;99255.19;5029870;28;20025;-69
2023/01/18 06:06:57;;;;;;;22.00;15.13;;;;;;;0.84;65.62;99259.13;5030078;28;20032;-69
2023/01/18 06:09:22;;;;;;;21.60;15.52;;;;;;;0.84;65.93;99264.56;5029136;28;20021;-68
2023/01/18 06:11:47;;;;;;;22.45;15.57;;;;;;;0.83;65.51;99269.22;5029870;28;20092;-68
2023/01/18 06:14:13;;;;;;;23.83;15.68;;;;;;;0.86;65.57;99265.16;5047879;28;20467;-68
2023/01/18 06:16:38;;;;;;;22.00;16.00;;;;;;;0.87;65.94;99275.06;5044775;28;20562;-68
2023/01/18 06:19:04;;;;;;;24.55;15.10;;;;;;;0.86;65.97;99276.09;5037282;28;20029;-68
2023/01/18 06:21:30;;;;;;;24.58;16.13;;;;;;;0.86;65.99;99278.81;5044296;28;20508;-69
2023/01/18 06:23:55;;;;;;;21.95;15.88;;;;;;;0.88;65.49;99284.91;5048336;28;20051;-71
2023/01/18 06:26:22;;;;;;;27.95;17.13;;;;;;;0.83;65.53;99287.50;5050956;28;20510;-69
2023/01/18 06:28:47;;;;;;;24.40;15.13;;;;;;;0.83;65.49;99293.78;5045243;28;20033;-71
2023/01/18 06:31:13;;;;;;;21.23;16.00;;;;;;;0.83;65.33;99295.69;5052510;28;20020;-71
2023/01/18 06:33:38;;;;;;;23.35;16.02;;;;;;;0.86;65.87;99306.13;5048310;28;20368;-70
2023/01/18 06:36:04;;;;;;;21.63;15.15;;;;;;;0.87;65.29;99307.84;5047485;28;20036;-72
2023/01/18 06:38:30;;;;;;;19.58;15.25;;;;;;;0.84;65.89;99305.56;5052135;28;20061;-73
2023/01/18 06:40:56;;;;;;;21.63;16.17;;;;;;;0.81;65.56;99301.38;5048465;28;20030;-71
2023/01/18 06:43:22;;;;;;;21.83;15.00;;;;;;;0.79;65.68;99303.50;5048352;28;20025;-72
2023/01/18 06:45:51;;;;;;;21.88;15.93;;;;;;;0.77;66.27;99304.78;5052221;28;20433;-71
2023/01/18 06:48:17;;;;;;;22.85;15.52;;;;;;;0.78;66.26;99317.38;5051509;28;20029;-73
2023/01/18 06:50:42;;;;;;;25.65;16.05;;;;;;;0.77;65.99;99316.53;5051171;28;20021;-68
2023/01/18 06:53:07;;;;;;;22.50;15.40;;;;;;;0.76;65.95;99322.25;5045668;28;20052;-69
2023/01/18 06:55:33;;;;;;;22.65;16.33;;;;;;;0.76;65.63;99330.44;5051966;28;20060;-68
2023/01/18 06:58:00;;;;;;;19.85;14.80;;;;;;;0.77;65.91;99326.63;5051429;28;20108;-69
2023/01/18 07:00:25;;;;;;;20.52;15.75;;;;;;;0.72;65.81;99335.50;5051515;28;20036;-69
2023/01/18 07:02:51;;;;;;;23.95;16.40;;;;;;;0.72;66.23;99343.69;5051183;28;20059;-69
2023/01/18 07:05:17;;;;;;;22.67;16.98;;;;;;;0.72;66.15;99344.53;5038544;28;20122;-68
2023/01/18 07:07:44;;;;;;;22.27;16.00;;;;;;;0.73;66.03;99348.09;5047694;28;20072;-69
2023/01/18 07:10:10;;;;;;;24.25;15.60;;;;;;;0.69;65.86;99347.72;5045333;28;20143;-68
2023/01/18 07:12:35;;;;;;;24.13;16.92;;;;;;;0.68;66.08;99356.13;5050348;28;20041;-68
2023/01/18 07:15:01;;;;;;;21.70;14.93;;;;;;;0.72;66.11;99351.91;5046355;28;20025;-66
2023/01/18 07:17:26;;;;;;;21.80;14.95;;;;;;;0.74;66.03;99349.75;5042072;28;20067;-65
2023/01/18 07:19:52;;;;;;;26.35;15.05;;;;;;;0.71;65.72;99356.53;5047458;28;20079;-65
2023/01/18 07:22:17;;;;;;;20.38;15.15;;;;;;;0.70;66.26;99360.28;5049353;28;20029;-65
2023/01/18 07:24:43;;;;;;;22.20;15.13;;;;;;;0.73;66.07;99359.84;5044121;28;20503;-65
2023/01/18 07:27:08;;;;;;;21.98;15.63;;;;;;;0.75;66.29;99362.38;5047354;28;20025;-65
2023/01/18 07:29:34;;;;;;;22.45;15.60;;;;;;;0.72;65.95;99363.66;5045295;28;20029;-65
2023/01/18 07:31:59;;;;;;;18.52;14.43;;;;;;;0.71;65.62;99366.63;5042627;28;20415;-65
2023/01/18 07:34:25;;;;;;;21.05;15.20;;;;;;;0.70;66.34;99360.28;5047048;28;20419;-66
2023/01/18 07:36:50;;;;;;;21.77;15.85;;;;;;;0.70;65.94;99367.66;5046971;28;20043;-64
2023/01/18 07:39:16;;;;;;;22.60;14.88;;;;;;;0.72;66.60;99366.38;5038410;28;20032;-68
2023/01/18 07:41:41;;;;;;;21.40;14.65;;;;;;;0.72;66.54;99371.84;5043283;28;20116;-66
2023/01/18 07:44:09;;;;;;;22.60;15.65;;;;;;;0.76;66.13;99371.41;5048953;28;20559;-66
2023/01/18 07:46:34;;;;;;;22.63;15.50;;;;;;;0.78;66.14;99377.44;5047392;28;20029;-67
2023/01/18 07:49:01;;;;;;;23.67;15.43;;;;;;;0.78;66.02;99375.56;5044936;28;20119;-67
2023/01/18 07:51:26;;;;;;;20.70;14.95;;;;;;;0.77;66.06;99383.97;5047840;28;20041;-66
2023/01/18 07:53:53;;;;;;;22.67;15.50;;;;;;;0.80;65.70;99383.53;5045054;28;20044;-67
2023/01/18 07:56:19;;;;;;;22.95;14.90;;;;;;;0.78;65.78;99386.47;5047281;28;20032;-67
2023/01/18 07:58:44;;;;;;;21.05;14.98;;;;;;;0.81;66.15;99383.31;5046695;28;20025;-65
2023/01/18 08:01:15;;;;;;;20.27;14.75;;;;;;;0.79;66.24;99379.97;5036336;28;20040;-66
2023/01/18 08:03:42;;;;;;;23.67;15.38;;;;;;;0.76;65.85;99388.63;5049527;28;20033;-67
2023/01/18 08:06:08;;;;;;;23.02;13.80;;;;;;;0.79;66.28;99398.25;5036839;28;20136;-68
2023/01/18 08:08:35;;;;;;;21.45;14.30;;;;;;;0.78;65.90;99393.84;5043169;28;20116;-67
2023/01/18 08:11:03;;;;;;;19.45;14.05;;;;;;;0.76;66.40;99401.44;5051576;28;20044;-67
2023/01/18 08:13:28;;;;;;;22.65;14.68;;;;;;;0.78;66.55;99399.31;5044942;28;20602;-67
2023/01/18 08:15:54;;;;;;;21.98;14.20;;;;;;;0.81;65.88;99404.31;5045054;28;20061;-66
2023/01/18 08:18:20;;;;;;;20.42;14.73;;;;;;;0.80;66.05;99408.13;5043913;28;20021;-64
2023/01/18 08:20:48;;;;;;;30.55;16.23;;;;;;;0.79;66.00;99411.91;5039854;28;20123;-68
2023/01/18 08:23:14;;;;;;;21.58;14.02;;;;;;;0.80;66.43;99408.13;5049724;28;20025;-67
2023/01/18 08:25:39;;;;;;;36.40;31.60;;;;;;;0.80;66.26;99402.66;5049025;28;20024;-66
2023/01/18 08:28:05;;;;;;;23.60;17.33;;;;;;;0.81;66.26;99404.31;5046952;28;20040;-67
2023/01/18 08:30:36;;;;;;;26.10;20.42;;;;;;;0.79;66.21;99414.66;5048820;28;20031;-66
2023/01/18 08:33:02;;;;;;;24.40;15.88;;;;;;;0.83;66.27;99408.50;5053227;28;20079;-66
2023/01/18 08:35:30;;;;;;;25.52;15.52;;;;;;;0.85;65.88;99424.66;5049053;28;20500;-67
2023/01/18 08:37:57;;;;;;;21.45;14.80;;;;;;;0.86;65.95;99427.16;5049350;28;20079;-66
2023/01/18 08:40:24;;;;;;;24.10;16.30;;;;;;;0.82;66.52;99428.66;5049140;28;20067;-69
2023/01/18 08:42:50;;;;;;;23.40;17.65;;;;;;;0.84;66.43;99431.19;5045108;28;20443;-65
2023/01/18 08:45:16;;;;;;;27.85;22.23;;;;;;;0.86;66.06;99445.44;5039822;28;20025;-65
2023/01/18 08:47:42;;;;;;;37.88;30.85;;;;;;;0.85;66.65;99444.63;5051369;28;20025;-64
2023/01/18 08:50:09;;;;;;;31.25;23.80;;;;;;;0.83;66.52;99445.91;5050322;28;20499;-64
2023/01/18 08:52:35;;;;;;;30.30;23.33;;;;;;;0.85;66.26;99449.25;5050347;28;20060;-69
2023/01/18 08:55:02;;;;;;;26.70;20.50;;;;;;;0.86;66.36;99456.38;5047182;28;20064;-65
2023/01/18 08:57:27;;;;;;;27.13;18.80;;;;;;;0.88;66.23;99452.38;5041742;28;20021;-67
2023/01/18 08:59:55;;;;;;;21.33;16.83;;;;;;;0.91;66.73;99449.19;5044559;28;20074;-66
2023/01/18 09:02:20;;;;;;;21.50;16.98;;;;;;;0.95;66.19;99466.81;5039318;28;20025;-65
2023/01/18 09:04:47;;;;;;;20.75;16.45;;;;;;;0.97;66.73;99464.66;5048833;28;20025;-66
2023/01/18 09:07:13;;;;;;;18.85;14.90;;;;;;;0.97;66.28;99463.84;5051127;28;20029;-67
2023/01/18 09:09:38;;;;;;;20.35;15.15;;;;;;;0.98;66.39;99468.22;5047472;28;20390;-66
2023/01/18 09:12:04;;;;;;;22.88;15.35;;;;;;;0.96;66.96;99465.75;5046818;28;20033;-70
2023/01/18 09:14:29;;;;;;;19.00;14.07;;;;;;;1.00;66.95;99460.66;5050228;28;20044;-65
2023/01/18 09:16:54;;;;;;;18.85;14.05;;;;;;;0.99;66.57;99475.38;5042146;28;20025;-71
2023/01/18 09:19:20;;;;;;;21.02;13.63;;;;;;;1.03;66.28;99478.50;5049716;28;20033;-73
2023/01/18 09:21:47;;;;;;;20.48;13.80;;;;;;;1.03;66.44;99479.34;5051689;28;20052;-72
2023/01/18 09:24:12;;;;;;;19.35;14.02;;;;;;;1.08;66.72;99484.13;5051090;28;20408;-72
2023/01/18 09:26:38;;;;;;;20.73;13.18;;;;;;;1.10;66.38;99487.47;5049614;28;20032;-73
2023/01/18 09:29:03;;;;;;;15.88;12.85;;;;;;;1.14;66.54;99492.28;5051433;28;20028;-73
2023/01/18 09:31:29;;;;;;;18.50;14.25;;;;;;;1.16;67.08;99495.59;5049355;28;20744;-71
2023/01/18 09:33:56;;;;;;;19.60;13.65;;;;;;;1.18;67.00;99493.50;5039720;28;20039;-72
2023/01/18 09:36:26;;;;;;;18.45;13.15;;;;;;;1.23;67.39;99499.09;5045956;28;20738;-73
2023/01/18 09:38:53;;;;;;;20.33;13.13;;;;;;;1.27;67.48;99498.66;5048624;28;20554;-72
2023/01/18 09:41:32;;;;;;;19.90;13.05;;;;;;;1.35;67.46;99503.84;5041954;28;20025;-69
2023/01/18 09:44:12;;;;;;;17.92;12.40;;;;;;;1.44;67.02;99507.94;5039588;28;20048;-69
2023/01/18 09:46:39;;;;;;;17.83;12.90;;;;;;;1.52;67.47;99515.84;5042790;28;20484;-72
2023/01/18 09:49:11;;;;;;;16.38;12.02;;;;;;;1.65;67.73;99518.44;5048454;28;20483;-73
2023/01/18 09:51:56;;;;;;;15.07;12.05;;;;;;;1.80;66.97;99517.22;5030854;28;20622;-72
2023/01/18 09:54:37;;;;;;;22.90;13.30;;;;;;;1.93;66.59;99519.81;5042798;28;20209;-68
2023/01/18 09:57:29;;;;;;;15.40;12.27;;;;;;;2.05;66.88;99523.44;5043297;28;20100;-69
2023/01/18 09:59:58;;;;;;;17.58;12.18;;;;;;;2.14;66.28;99532.16;5044937;28;20136;-67
2023/01/18 10:02:37;;;;;;;16.40;11.95;;;;;;;2.23;66.33;99522.56;5046281;28;20020;-68
2023/01/18 10:05:16;;;;;;;17.10;12.27;;;;;;;2.52;68.19;99515.41;5043535;28;20040;-69
2023/01/18 10:08:01;;;;;;;18.42;12.18;;;;;;;2.70;66.42;99518.06;5040608;28;20028;-69
2023/01/18 10:10:30;;;;;;;18.75;12.38;;;;;;;2.79;65.51;99523.22;5042629;28;20033;-67
2023/01/18 10:13:29;;;;;;;14.77;11.70;;;;;;;2.92;66.04;99533.97;5047562;28;20048;-68
2023/01/18 10:15:54;;;;;;;15.77;11.25;;;;;;;2.97;65.78;99528.63;5045838;28;20079;-68
2023/01/18 10:18:19;;;;;;;19.05;12.00;;;;;;;3.04;65.46;99532.09;5048696;28;20484;-70
2023/01/18 10:20:51;;;;;;;21.25;12.65;;;;;;;3.12;65.30;99534.47;5047581;28;20090;-67
2023/01/18 10:23:29;;;;;;;15.30;12.05;;;;;;;3.19;65.49;99537.13;5046319;28;20217;-66
2023/01/18 10:26:00;;;;;;;16.63;11.35;;;;;;;3.25;64.67;99546.28;5031036;28;20021;-67
2023/01/18 10:28:34;;;;;;;18.33;11.73;;;;;;;3.30;65.10;99538.19;5039214;28;20029;-68
2023/01/18 10:31:19;;;;;;;14.93;10.60;;;;;;;3.37;64.87;99536.16;5048106;28;20116;-72
2023/01/18 10:33:45;;;;;;;15.73;11.85;;;;;;;3.44;64.93;99534.13;5047616;28;20032;-72
2023/01/18 10:36:14;;;;;;;15.38;11.52;;;;;;;3.51;64.90;99543.09;5045607;28;20029;-72
2023/01/18 10:38:40;;;;;;;17.25;12.00;;;;;;;3.57;64.36;99539.38;5044534;28;20393;-73
2023/01/18 10:41:17;;;;;;;16.17;11.25;;;;;;;3.61;64.52;99539.72;5045475;28;20041;-71
2023/01/18 10:43:43;;;;;;;15.65;11.45;;;;;;;3.67;64.44;99547.84;5025009;28;20088;-70
2023/01/18 10:46:14;;;;;;;15.18;11.20;;;;;;;3.71;64.26;99539.13;5038902;28;20053;-69
2023/01/18 10:48:44;;;;;;;15.02;11.18;;;;;;;3.78;64.36;99539.84;5042896;28;20029;-71
2023/01/18 10:51:23;;;;;;;15.80;11.02;;;;;;;3.82;64.45;99543.78;5041977;28;20033;-62
2023/01/18 10:53:48;;;;;;;15.10;11.45;;;;;;;3.84;63.92;99544.34;5044297;28;20040;-64
2023/01/18 10:56:19;;;;;;;13.80;10.85;;;;;;;3.84;64.50;99539.69;5038960;28;20100;-63
2023/01/18 10:58:50;;;;;;;14.95;10.75;;;;;;;3.86;64.14;99540.31;5048942;28;20146;-62
2023/01/18 11:01:32;;;;;;;12.52;10.93;;;;;;;3.88;64.16;99540.06;5044318;28;20043;-65
2023/01/18 11:04:06;;;;;;;16.15;11.20;;;;;;;3.90;64.37;99537.91;5037469;28;20560;-64
2023/01/18 11:06:45;;;;;;;12.88;10.63;;;;;;;3.92;64.28;99546.72;5051971;28;20013;-65
2023/01/18 11:09:40;;;;;;;16.05;10.63;;;;;;;3.96;64.30;99544.34;5050050;28;20025;-64
2023/01/18 11:12:33;;;;;;;13.25;10.88;;;;;;;3.94;64.61;99544.59;5048061;28;20124;-71
2023/01/18 11:15:13;;;;;;;17.55;11.82;;;;;;;3.97;64.76;99549.59;5050281;28;20051;-69
2023/01/18 11:17:59;;;;;;;15.85;11.63;;;;;;;3.99;64.69;99558.41;5035684;28;20845;-68
2023/01/18 11:20:36;;;;;;;18.13;12.00;;;;;;;4.02;64.90;99557.13;5045017;28;20112;-69
2023/01/18 11:23:15;;;;;;;13.10;10.35;;;;;;;4.02;64.40;99557.13;5047951;28;20056;-70
2023/01/18 11:25:48;;;;;;;16.88;11.48;;;;;;;4.04;64.33;99555.78;5048148;28;20025;-72
2023/01/18 11:28:29;;;;;;;14.93;11.95;;;;;;;4.10;64.71;99549.31;5052438;28;20111;-73
2023/01/18 11:31:06;;;;;;;13.27;10.70;;;;;;;4.17;64.20;99546.44;5047186;28;20029;-68
2023/01/18 11:33:31;;;;;;;14.10;10.13;;;;;;;4.22;64.01;99540.22;5047849;28;20021;-68
2023/01/18 11:35:59;;;;;;;15.80;10.70;;;;;;;4.26;64.42;99544.97;5048768;28;20063;-68
2023/01/18 11:38:28;;;;;;;16.33;10.18;;;;;;;4.30;64.00;99537.91;5042275;28;20052;-68
2023/01/18 11:41:04;;;;;;;13.93;10.43;;;;;;;4.36;64.11;99549.81;5047283;28;20079;-63
2023/01/18 11:43:32;;;;;;;12.60;10.02;;;;;;;4.36;63.52;99550.69;5049726;28;20037;-69
2023/01/18 11:46:05;;;;;;;14.93;12.10;;;;;;;4.37;63.64;99546.84;5037298;28;20032;-61
2023/01/18 11:49:10;;;;;;;14.75;10.55;;;;;;;4.39;63.63;99547.44;5052111;28;20036;-62
2023/01/18 11:51:50;;;;;;;15.73;9.68;;;;;;;4.40;63.70;99543.63;5040730;28;20040;-63
2023/01/18 11:54:26;;;;;;;12.50;9.65;;;;;;;4.42;63.42;99541.44;5047972;28;20039;-64
2023/01/18 11:56:58;;;;;;;15.25;9.30;;;;;;;4.42;63.49;99546.94;5052302;28;20025;-64
2023/01/18 11:59:29;;;;;;;16.00;9.52;;;;;;;4.43;63.60;99542.28;5048269;28;20029;-65
2023/01/18 12:02:07;;;;;;;12.90;9.23;;;;;;;4.46;63.48;99546.47;5046493;28;20074;-65
2023/01/18 12:04:38;;;;;;;12.05;8.85;;;;;;;4.46;63.36;99552.78;5047624;28;20074;-65